CAU4 weather

Vanderhoof Airport
Vanderhoof, British Columbia, Canada

Public forecast

Using degrees Celsius for public forecast. Weather courtesy of forecast.io.

METAR (pilot weather report)

Closest report is Prince George Airport, 48.0 nm (88.9 km) E. Retrieved 2019/08/18 20:00 UTC (12 minutes ago):

CYXS 182000Z AUTO 18010G16KT 9SM SCT080 RMK T MISG TD MISG DENSITY ALT MISG

TAF (pilot weather forecast)

Closest forecast is Prince George Airport, 48.0 nm (88.9 km) E. Retrieved 2019/08/18 19:39 UTC (33 minutes ago):

TAF TAF CYXS 181838Z 1819/1907 18010G20KT P6SM BKN060 TEMPO 1819/1903 P6SM -SHRA PROB30 1819/1821 5SM -SHRA BR BKN008 FM190300 18010KT P6SM BKN060 BECMG 1903/1905 27005KT RMK FCST BASED ON AUTO OBS. NXT FCST BY 190100Z